Time;durP1;ratioP1;P1;durP2;ratioP2;P2;SDS_P1;SDS_P2;PMS_P1;PMS_P2;Temp;Humidity;BMP_temperature;BMP_pressure;BME280_temperature;BME280_humidity;BME280_pressure;Samples;Min_cycle;Max_cycle;Signal;HPM_P1;HPM_P2
2023/02/20 00:01:50;;;;;;;29.20;16.08;;;;;;;;;;5085885;28;20036;-76
2023/02/20 00:04:17;;;;;;;52.95;28.05;;;;;;;;;;5091279;28;20870;-76
2023/02/20 00:06:43;;;;;;;49.90;25.20;;;;;;;;;;5090110;28;20544;-76
2023/02/20 00:09:09;;;;;;;29.10;15.85;;;;;;;;;;5075403;28;20029;-76
2023/02/20 00:11:35;;;;;;;32.22;15.45;;;;;;;;;;5084226;28;20049;-76
2023/02/20 00:14:01;;;;;;;34.17;15.43;;;;;;;;;;5091006;28;20385;-76
2023/02/20 00:16:27;;;;;;;25.48;15.55;;;;;;;;;;5083219;28;20032;-76
2023/02/20 00:18:53;;;;;;;25.48;15.10;;;;;;;;;;5082141;28;20086;-76
2023/02/20 00:21:19;;;;;;;33.17;16.70;;;;;;;;;;5088330;28;20032;-76
2023/02/20 00:23:45;;;;;;;26.45;15.52;;;;;;;;;;5063237;28;20036;-76
2023/02/20 00:26:12;;;;;;;28.77;19.20;;;;;;;;;;5088363;28;20140;-76
2023/02/20 00:28:39;;;;;;;28.45;18.75;;;;;;;;;;5087251;28;20499;-76
2023/02/20 00:31:06;;;;;;;28.85;19.45;;;;;;;;;;5089291;28;20394;-76
2023/02/20 00:33:32;;;;;;;26.63;17.00;;;;;;;;;;5080346;28;20035;-76
2023/02/20 00:35:58;;;;;;;25.77;16.95;;;;;;;;;;5081930;28;20028;-76
2023/02/20 00:38:24;;;;;;;26.17;16.10;;;;;;;;;;5082369;28;20040;-76
2023/02/20 00:40:50;;;;;;;25.70;17.23;;;;;;;;;;5087210;28;20109;-76
2023/02/20 00:43:16;;;;;;;29.35;18.50;;;;;;;;;;5088444;28;20082;-75
2023/02/20 00:45:42;;;;;;;27.05;17.30;;;;;;;;;;5088409;28;20748;-76
2023/02/20 00:48:08;;;;;;;28.88;16.55;;;;;;;;;;5082618;28;20036;-76
2023/02/20 00:50:34;;;;;;;28.42;16.27;;;;;;;;;;5079472;28;20031;-76
2023/02/20 00:53:00;;;;;;;26.95;17.58;;;;;;;;;;5070107;28;20103;-76
2023/02/20 00:55:26;;;;;;;24.70;15.38;;;;;;;;;;5083102;28;20047;-76
2023/02/20 00:57:52;;;;;;;23.63;16.35;;;;;;;;;;5077346;28;20043;-76
2023/02/20 01:00:23;;;;;;;25.30;15.85;;;;;;;;;;5086153;28;20068;-76
2023/02/20 01:02:49;;;;;;;21.83;14.63;;;;;;;;;;5089123;28;20036;-76
2023/02/20 01:05:15;;;;;;;27.58;18.35;;;;;;;;;;5090527;28;20032;-76
2023/02/20 01:07:41;;;;;;;29.10;18.98;;;;;;;;;;5085265;28;20035;-76
2023/02/20 01:10:09;;;;;;;27.90;17.95;;;;;;;;;;5082824;28;20036;-76
2023/02/20 01:12:35;;;;;;;25.45;14.95;;;;;;;;;;5074891;28;20712;-76
2023/02/20 01:15:01;;;;;;;24.30;15.88;;;;;;;;;;5083702;28;20170;-76
2023/02/20 01:17:27;;;;;;;23.58;13.43;;;;;;;;;;5086079;28;20500;-76
2023/02/20 01:19:54;;;;;;;21.08;12.90;;;;;;;;;;5089123;28;20036;-76
2023/02/20 01:22:20;;;;;;;18.75;10.77;;;;;;;;;;5080082;28;20024;-76
2023/02/20 01:24:46;;;;;;;17.15;10.15;;;;;;;;;;5082456;28;20089;-76
2023/02/20 01:27:12;;;;;;;19.88;11.10;;;;;;;;;;5078091;28;20036;-76
2023/02/20 01:29:38;;;;;;;19.08;12.48;;;;;;;;;;5085697;28;20032;-76
2023/02/20 01:32:04;;;;;;;21.85;13.15;;;;;;;;;;5084868;28;20031;-75
2023/02/20 01:34:30;;;;;;;23.73;13.73;;;;;;;;;;5088303;28;20105;-76
2023/02/20 01:36:56;;;;;;;18.55;11.90;;;;;;;;;;5089543;28;20067;-76
2023/02/20 01:39:24;;;;;;;22.05;13.63;;;;;;;;;;5079286;28;20512;-76
2023/02/20 01:41:51;;;;;;;22.92;12.15;;;;;;;;;;5078415;28;20042;-76
2023/02/20 01:44:19;;;;;;;22.00;12.45;;;;;;;;;;5087650;28;20056;-76
2023/02/20 01:46:50;;;;;;;20.10;12.65;;;;;;;;;;5084988;28;20028;-76
2023/02/20 01:49:19;;;;;;;21.65;12.65;;;;;;;;;;5083928;28;20029;-76
2023/02/20 01:51:47;;;;;;;23.83;11.90;;;;;;;;;;5086223;28;20025;-76
2023/02/20 01:54:16;;;;;;;23.80;14.93;;;;;;;;;;5079921;28;20492;-75
2023/02/20 01:56:44;;;;;;;20.95;12.35;;;;;;;;;;5088473;28;20028;-76
2023/02/20 01:59:11;;;;;;;18.13;10.73;;;;;;;;;;5084245;28;20061;-76
2023/02/20 02:01:37;;;;;;;18.77;11.93;;;;;;;;;;5085604;28;20038;-75
2023/02/20 02:04:05;;;;;;;20.92;13.68;;;;;;;;;;5081255;28;20047;-76
2023/02/20 02:06:33;;;;;;;18.15;11.75;;;;;;;;;;5089341;28;20061;-75
2023/02/20 02:09:02;;;;;;;18.23;10.45;;;;;;;;;;5082870;28;20032;-76
2023/02/20 02:11:28;;;;;;;19.70;12.68;;;;;;;;;;5086079;28;20464;-75
2023/02/20 02:13:54;;;;;;;21.70;12.40;;;;;;;;;;5079033;28;20470;-75
2023/02/20 02:16:23;;;;;;;19.58;13.55;;;;;;;;;;5085190;28;20128;-75
2023/02/20 02:19:08;;;;;;;20.20;12.52;;;;;;;;;;5088738;28;20044;-75
2023/02/20 02:21:46;;;;;;;20.98;12.57;;;;;;;;;;5088480;28;20205;-75
2023/02/20 02:24:12;;;;;;;22.63;12.38;;;;;;;;;;5078350;28;20366;-75
2023/02/20 02:26:52;;;;;;;23.50;13.82;;;;;;;;;;5087089;28;20032;-76
2023/02/20 02:29:30;;;;;;;21.40;11.90;;;;;;;;;;5075676;28;20153;-76
2023/02/20 02:32:08;;;;;;;23.25;13.50;;;;;;;;;;5078234;28;20041;-76
2023/02/20 02:34:47;;;;;;;19.23;11.07;;;;;;;;;;5069721;28;20442;-76
2023/02/20 02:37:33;;;;;;;21.38;13.30;;;;;;;;;;5083390;28;20469;-75
2023/02/20 02:40:17;;;;;;;23.30;14.00;;;;;;;;;;5054422;28;20051;-75
2023/02/20 02:43:02;;;;;;;23.08;13.38;;;;;;;;;;5085076;28;20508;-75
2023/02/20 02:45:31;;;;;;;19.88;12.15;;;;;;;;;;5080966;28;20561;-76
2023/02/20 02:48:05;;;;;;;21.02;11.95;;;;;;;;;;5082817;28;20032;-75
2023/02/20 02:50:35;;;;;;;22.17;13.30;;;;;;;;;;5084333;28;20584;-76
2023/02/20 02:53:02;;;;;;;24.95;13.00;;;;;;;;;;5080999;28;20363;-75
2023/02/20 02:55:29;;;;;;;20.38;12.00;;;;;;;;;;5085599;28;20817;-75
2023/02/20 02:57:55;;;;;;;18.60;11.77;;;;;;;;;;5087925;28;20042;-75
2023/02/20 03:00:24;;;;;;;18.92;11.40;;;;;;;;;;5087955;28;20054;-75
2023/02/20 03:02:56;;;;;;;18.08;11.10;;;;;;;;;;5084975;28;20055;-75
2023/02/20 03:05:24;;;;;;;18.52;10.98;;;;;;;;;;5075938;28;20040;-76
2023/02/20 03:07:53;;;;;;;18.63;11.52;;;;;;;;;;5086361;28;20067;-75
2023/02/20 03:10:30;;;;;;;17.08;11.20;;;;;;;;;;5090105;28;20051;-75
2023/02/20 03:12:58;;;;;;;18.42;12.32;;;;;;;;;;5089404;28;20099;-75
2023/02/20 03:15:36;;;;;;;17.85;11.38;;;;;;;;;;5072906;28;20142;-75
2023/02/20 03:18:10;;;;;;;17.65;10.80;;;;;;;;;;5082125;28;20039;-75
2023/02/20 03:20:42;;;;;;;15.05;9.02;;;;;;;;;;5083210;28;20070;-75
2023/02/20 03:23:09;;;;;;;14.65;9.32;;;;;;;;;;5090743;28;20032;-75
2023/02/20 03:25:53;;;;;;;21.58;11.85;;;;;;;;;;5081584;28;20046;-75
2023/02/20 03:28:32;;;;;;;17.10;10.35;;;;;;;;;;5085566;28;20050;-75
2023/02/20 03:31:00;;;;;;;22.38;13.70;;;;;;;;;;5087181;28;20119;-75
2023/02/20 03:44:41;;;;;;;18.55;10.55;;;;;;;;;;5089020;28;20470;-75
2023/02/20 03:47:08;;;;;;;20.73;12.63;;;;;;;;;;5084153;28;20119;-75
2023/02/20 03:49:36;;;;;;;17.60;10.98;;;;;;;;;;5089937;28;20441;-75
2023/02/20 03:52:02;;;;;;;20.55;12.38;;;;;;;;;;5087843;28;20024;-75
2023/02/20 03:54:29;;;;;;;18.23;11.65;;;;;;;;;;5090717;28;20114;-75
2023/02/20 03:57:03;;;;;;;19.65;12.02;;;;;;;;;;5075788;28;20024;-75
2023/02/20 03:59:36;;;;;;;19.15;9.38;;;;;;;;;;5081232;28;20040;-75
2023/02/20 04:02:04;;;;;;;18.85;10.40;;;;;;;;;;5087625;28;20056;-75
2023/02/20 04:04:33;;;;;;;17.83;9.52;;;;;;;;;;5086069;28;20111;-75
2023/02/20 04:07:00;;;;;;;16.88;9.73;;;;;;;;;;5087134;28;20369;-75
2023/02/20 04:09:28;;;;;;;17.48;9.60;;;;;;;;;;5089633;28;20085;-75
2023/02/20 04:11:57;;;;;;;15.77;9.77;;;;;;;;;;5088831;28;20028;-76
2023/02/20 04:14:26;;;;;;;14.27;8.77;;;;;;;;;;5084227;28;20504;-76
2023/02/20 04:16:57;;;;;;;18.05;9.20;;;;;;;;;;5090962;28;20032;-75
2023/02/20 04:19:24;;;;;;;12.60;7.35;;;;;;;;;;5086266;28;20036;-75
2023/02/20 04:21:51;;;;;;;12.82;6.25;;;;;;;;;;5090985;28;20028;-75
2023/02/20 04:24:23;;;;;;;13.45;7.97;;;;;;;;;;5089731;28;20447;-75
2023/02/20 04:26:49;;;;;;;14.60;8.07;;;;;;;;;;5085617;28;20032;-75
2023/02/20 04:29:15;;;;;;;13.32;7.00;;;;;;;;;;5088831;28;20427;-76
2023/02/20 04:31:41;;;;;;;12.45;7.38;;;;;;;;;;5090032;28;20034;-75
2023/02/20 04:34:07;;;;;;;14.55;7.30;;;;;;;;;;5085882;28;20039;-75
2023/02/20 04:36:33;;;;;;;16.05;7.63;;;;;;;;;;5090193;28;20028;-75
2023/02/20 04:38:59;;;;;;;22.70;12.75;;;;;;;;;;5087936;28;20039;-75
2023/02/20 04:41:25;;;;;;;20.35;11.40;;;;;;;;;;5088917;28;20077;-75
2023/02/20 04:44:29;;;;;;;17.77;10.38;;;;;;;;;;5086395;28;20091;-75
2023/02/20 04:46:37;;;;;;;18.52;11.05;;;;;;;;;;5079040;28;20509;-75
2023/02/20 04:49:03;;;;;;;18.58;9.95;;;;;;;;;;5076613;28;20124;-75
2023/02/20 04:51:29;;;;;;;15.27;9.30;;;;;;;;;;5090068;28;20032;-76
2023/02/20 04:53:56;;;;;;;18.55;11.68;;;;;;;;;;5089180;28;20058;-75
2023/02/20 04:56:22;;;;;;;16.90;10.57;;;;;;;;;;5089740;28;20035;-76
2023/02/20 04:58:48;;;;;;;18.80;11.80;;;;;;;;;;5086813;28;20028;-75
2023/02/20 05:01:14;;;;;;;18.23;11.00;;;;;;;;;;5086325;28;20123;-75
2023/02/20 05:03:40;;;;;;;17.83;11.52;;;;;;;;;;5086089;28;20048;-75
2023/02/20 05:06:06;;;;;;;19.00;10.55;;;;;;;;;;5088501;28;20031;-75
2023/02/20 05:08:32;;;;;;;16.65;9.98;;;;;;;;;;5086733;28;20462;-76
2023/02/20 05:10:58;;;;;;;17.08;9.70;;;;;;;;;;5087368;28;20035;-76
2023/02/20 05:13:24;;;;;;;14.15;9.10;;;;;;;;;;5089120;28;20111;-75
2023/02/20 05:15:50;;;;;;;17.70;9.07;;;;;;;;;;5087227;28;20032;-75
2023/02/20 05:18:29;;;;;;;15.20;8.63;;;;;;;;;;5089286;28;20054;-75
2023/02/20 05:23:40;;;;;;;16.58;8.82;;;;;;;;;;5075027;28;20051;-75
2023/02/20 05:26:09;;;;;;;14.77;7.88;;;;;;;;;;5087092;28;20028;-76
2023/02/20 05:28:36;;;;;;;13.93;7.95;;;;;;;;;;5087642;28;20032;-76
2023/02/20 05:31:02;;;;;;;15.40;8.95;;;;;;;;;;5087561;28;20103;-75
2023/02/20 05:33:28;;;;;;;15.63;8.30;;;;;;;;;;5088959;28;20035;-75
2023/02/20 05:35:54;;;;;;;15.20;8.75;;;;;;;;;;5085314;28;20078;-76
2023/02/20 05:38:20;;;;;;;14.15;8.63;;;;;;;;;;5071369;28;20528;-75
2023/02/20 05:40:46;;;;;;;14.98;9.27;;;;;;;;;;5083427;28;20028;-76
2023/02/20 05:43:12;;;;;;;20.45;10.55;;;;;;;;;;5087404;28;20063;-75
2023/02/20 05:45:38;;;;;;;16.83;9.57;;;;;;;;;;5086845;28;20065;-75
2023/02/20 05:48:04;;;;;;;16.17;9.35;;;;;;;;;;5089013;28;20032;-75
2023/02/20 05:50:30;;;;;;;17.50;9.93;;;;;;;;;;5087676;28;20052;-75
2023/02/20 05:52:56;;;;;;;18.27;10.15;;;;;;;;;;5084449;28;20063;-75
2023/02/20 05:55:22;;;;;;;15.15;10.13;;;;;;;;;;5071045;28;20500;-76
2023/02/20 05:57:48;;;;;;;23.05;13.38;;;;;;;;;;5087812;28;20034;-75
2023/02/20 06:00:14;;;;;;;26.30;14.23;;;;;;;;;;5078568;28;20034;-75
2023/02/20 06:02:40;;;;;;;19.83;11.98;;;;;;;;;;5088582;28;20043;-75
2023/02/20 06:05:06;;;;;;;30.40;16.63;;;;;;;;;;5089932;28;20036;-75
2023/02/20 06:07:32;;;;;;;40.25;21.67;;;;;;;;;;5088538;28;20031;-75
2023/02/20 06:09:58;;;;;;;45.70;23.65;;;;;;;;;;5088806;28;20024;-75
2023/02/20 06:12:24;;;;;;;46.20;24.60;;;;;;;;;;5087992;28;20051;-75
2023/02/20 06:14:50;;;;;;;43.05;24.90;;;;;;;;;;5088008;28;20111;-75
2023/02/20 06:17:16;;;;;;;36.67;17.88;;;;;;;;;;5087764;28;20032;-75
2023/02/20 06:19:42;;;;;;;27.15;18.42;;;;;;;;;;5088478;28;20074;-75
2023/02/20 06:22:08;;;;;;;37.58;21.10;;;;;;;;;;5088078;28;20048;-75
2023/02/20 06:24:34;;;;;;;33.03;18.02;;;;;;;;;;5087457;28;20032;-75
2023/02/20 06:27:00;;;;;;;40.55;22.42;;;;;;;;;;5086850;28;20032;-75
2023/02/20 06:29:27;;;;;;;52.45;26.80;;;;;;;;;;5087522;28;20576;-75
2023/02/20 06:31:54;;;;;;;45.45;25.80;;;;;;;;;;5087955;28;20855;-74
2023/02/20 06:34:22;;;;;;;40.05;21.48;;;;;;;;;;5068099;28;20510;-73
2023/02/20 06:36:48;;;;;;;32.40;18.38;;;;;;;;;;5087650;28;20060;-74
2023/02/20 06:39:14;;;;;;;31.75;18.08;;;;;;;;;;5089610;28;20091;-73
2023/02/20 06:41:40;;;;;;;29.67;17.55;;;;;;;;;;5086141;28;20063;-73
2023/02/20 06:44:06;;;;;;;32.92;16.25;;;;;;;;;;5086353;28;20063;-73
2023/02/20 06:46:33;;;;;;;29.35;18.98;;;;;;;;;;5091059;28;20036;-74
2023/02/20 06:48:59;;;;;;;29.05;17.48;;;;;;;;;;5091211;28;20024;-74
2023/02/20 06:51:26;;;;;;;28.45;16.95;;;;;;;;;;5089048;28;20020;-74
2023/02/20 06:53:52;;;;;;;34.97;20.25;;;;;;;;;;5088097;28;20063;-74
2023/02/20 06:56:26;;;;;;;32.78;18.58;;;;;;;;;;5089483;28;20059;-74
2023/02/20 06:58:53;;;;;;;27.80;15.35;;;;;;;;;;5093100;28;20103;-74
2023/02/20 07:01:20;;;;;;;33.17;20.20;;;;;;;;;;5090656;28;20039;-74
2023/02/20 07:03:47;;;;;;;31.05;16.60;;;;;;;;;;5092439;28;20478;-74
2023/02/20 07:06:14;;;;;;;34.03;18.42;;;;;;;;;;5089977;28;20024;-75
2023/02/20 07:08:40;;;;;;;34.83;18.60;;;;;;;;;;5088146;28;20508;-75
2023/02/20 07:11:06;;;;;;;34.05;19.38;;;;;;;;;;5092844;28;20039;-74
2023/02/20 07:13:32;;;;;;;32.55;18.10;;;;;;;;;;5089769;28;20032;-73
2023/02/20 07:15:58;;;;;;;32.35;18.13;;;;;;;;;;5089109;28;20035;-73
2023/02/20 07:18:26;;;;;;;27.25;15.77;;;;;;;;;;5089047;28;20032;-73
2023/02/20 07:20:52;;;;;;;25.42;15.00;;;;;;;;;;5089088;28;20040;-73
2023/02/20 07:23:18;;;;;;;28.98;14.82;;;;;;;;;;5089937;28;20095;-73
2023/02/20 07:25:44;;;;;;;28.13;15.30;;;;;;;;;;5086995;28;20381;-73
2023/02/20 07:28:10;;;;;;;34.33;16.27;;;;;;;;;;5092527;28;20024;-74
2023/02/20 07:30:36;;;;;;;49.75;23.90;;;;;;;;;;5092124;28;20036;-73
2023/02/20 07:33:02;;;;;;;50.90;24.00;;;;;;;;;;5095633;28;20107;-74
2023/02/20 07:35:28;;;;;;;46.58;22.67;;;;;;;;;;5097974;28;20361;-73
2023/02/20 07:37:54;;;;;;;37.15;19.63;;;;;;;;;;5090824;28;20054;-73
2023/02/20 07:40:21;;;;;;;36.35;19.83;;;;;;;;;;5091818;28;20036;-74
2023/02/20 07:42:47;;;;;;;30.88;16.95;;;;;;;;;;5089615;28;20438;-73
2023/02/20 07:45:13;;;;;;;26.80;15.80;;;;;;;;;;5084253;28;20083;-73
2023/02/20 07:47:39;;;;;;;25.63;14.75;;;;;;;;;;5081767;28;20035;-73
2023/02/20 07:50:05;;;;;;;34.17;15.43;;;;;;;;;;5084038;28;20037;-73
2023/02/20 07:52:31;;;;;;;39.55;19.17;;;;;;;;;;5069480;28;20032;-74
2023/02/20 07:54:57;;;;;;;40.28;18.38;;;;;;;;;;5091783;28;20028;-74
2023/02/20 07:57:23;;;;;;;51.28;19.05;;;;;;;;;;5089313;28;20694;-73
2023/02/20 07:59:49;;;;;;;37.70;18.15;;;;;;;;;;5089393;28;20024;-73
2023/02/20 08:02:15;;;;;;;33.45;15.63;;;;;;;;;;5085275;28;20031;-73
2023/02/20 08:04:41;;;;;;;23.15;13.93;;;;;;;;;;5087104;28;20032;-73
2023/02/20 08:07:07;;;;;;;28.45;15.25;;;;;;;;;;5088400;28;20028;-74
2023/02/20 08:09:33;;;;;;;22.73;14.57;;;;;;;;;;5089690;28;20047;-73
2023/02/20 08:11:59;;;;;;;26.95;14.85;;;;;;;;;;5084793;28;20117;-73
2023/02/20 08:14:27;;;;;;;21.40;13.45;;;;;;;;;;5088606;28;20039;-74
2023/02/20 08:16:53;;;;;;;24.02;14.45;;;;;;;;;;5085051;28;20066;-74
2023/02/20 08:19:19;;;;;;;24.38;16.15;;;;;;;;;;5081492;28;20145;-74
2023/02/20 08:21:45;;;;;;;29.70;18.85;;;;;;;;;;5088596;28;20042;-74
2023/02/20 08:24:11;;;;;;;31.33;18.75;;;;;;;;;;5088679;28;20393;-74
2023/02/20 08:26:44;;;;;;;33.58;19.83;;;;;;;;;;5085628;28;20041;-73
2023/02/20 08:29:10;;;;;;;27.08;14.80;;;;;;;;;;5087804;28;20030;-74
2023/02/20 08:31:36;;;;;;;25.67;14.00;;;;;;;;;;5088622;28;20032;-74
2023/02/20 08:34:02;;;;;;;23.48;13.68;;;;;;;;;;5086285;28;20569;-74
2023/02/20 08:36:28;;;;;;;27.42;13.48;;;;;;;;;;5091354;28;20032;-74
2023/02/20 08:38:54;;;;;;;21.35;13.23;;;;;;;;;;5087097;28;20429;-72
2023/02/20 08:41:20;;;;;;;21.45;11.55;;;;;;;;;;5086946;28;20028;-72
2023/02/20 08:43:46;;;;;;;22.80;11.27;;;;;;;;;;5064451;28;20051;-73
2023/02/20 08:46:12;;;;;;;22.17;11.95;;;;;;;;;;5085801;28;20078;-73
2023/02/20 08:48:38;;;;;;;22.63;11.82;;;;;;;;;;5090796;28;20062;-73
2023/02/20 08:51:05;;;;;;;20.52;11.35;;;;;;;;;;5085297;28;20069;-73
2023/02/20 08:53:31;;;;;;;27.30;11.98;;;;;;;;;;5088501;28;20024;-73
2023/02/20 08:55:57;;;;;;;23.23;11.75;;;;;;;;;;5084385;28;20043;-73
2023/02/20 08:58:24;;;;;;;21.75;11.20;;;;;;;;;;5088374;28;20035;-72
2023/02/20 09:00:51;;;;;;;22.33;10.60;;;;;;;;;;5087053;28;20136;-73
2023/02/20 09:03:17;;;;;;;20.10;10.30;;;;;;;;;;5087775;28;20081;-73
2023/02/20 09:05:43;;;;;;;19.27;9.40;;;;;;;;;;5084732;28;20036;-72
2023/02/20 09:08:10;;;;;;;20.05;9.32;;;;;;;;;;5089429;28;20054;-73
2023/02/20 09:10:36;;;;;;;16.75;9.18;;;;;;;;;;5091543;28;20106;-75
2023/02/20 09:13:02;;;;;;;20.60;10.80;;;;;;;;;;5087497;28;20481;-74
2023/02/20 09:15:30;;;;;;;25.48;9.15;;;;;;;;;;5085414;28;20026;-74
2023/02/20 09:17:56;;;;;;;25.38;10.02;;;;;;;;;;5086580;28;20036;-75
2023/02/20 09:20:22;;;;;;;19.40;9.40;;;;;;;;;;5082395;28;20107;-74
2023/02/20 09:22:49;;;;;;;22.17;11.55;;;;;;;;;;5085125;28;20036;-74
2023/02/20 09:25:16;;;;;;;36.40;10.23;;;;;;;;;;5082951;28;20097;-74
2023/02/20 09:27:43;;;;;;;16.33;9.35;;;;;;;;;;5089518;28;20028;-74
2023/02/20 09:30:12;;;;;;;15.85;9.15;;;;;;;;;;5090008;28;20053;-74
2023/02/20 09:32:38;;;;;;;20.17;9.68;;;;;;;;;;5087943;28;20137;-75
2023/02/20 09:35:04;;;;;;;15.20;9.15;;;;;;;;;;5091641;28;20111;-74
2023/02/20 09:37:30;;;;;;;17.38;9.20;;;;;;;;;;5089474;28;20077;-75
2023/02/20 09:39:56;;;;;;;16.70;9.35;;;;;;;;;;5087233;28;20458;-75
2023/02/20 09:42:36;;;;;;;17.40;8.82;;;;;;;;;;5084569;28;20042;-75
2023/02/20 09:45:06;;;;;;;17.67;9.13;;;;;;;;;;5086686;28;20706;-74
2023/02/20 09:47:41;;;;;;;17.55;7.80;;;;;;;;;;5077358;28;20064;-74
2023/02/20 09:50:13;;;;;;;14.20;8.15;;;;;;;;;;5085951;28;20039;-76
2023/02/20 09:52:41;;;;;;;18.10;7.57;;;;;;;;;;5087848;28;20062;-75
2023/02/20 09:55:12;;;;;;;14.10;8.07;;;;;;;;;;5087887;28;20030;-76
2023/02/20 09:57:38;;;;;;;14.18;8.18;;;;;;;;;;5084933;28;20039;-76
2023/02/20 10:00:08;;;;;;;13.93;8.23;;;;;;;;;;5086696;28;20028;-76
2023/02/20 10:02:37;;;;;;;16.08;7.78;;;;;;;;;;5088634;28;20039;-75
2023/02/20 10:05:06;;;;;;;18.30;8.15;;;;;;;;;;5087470;28;20035;-75
2023/02/20 10:07:33;;;;;;;19.95;8.30;;;;;;;;;;5073922;28;20139;-75
2023/02/20 10:10:00;;;;;;;16.70;8.27;;;;;;;;;;5086618;28;20035;-75
2023/02/20 10:12:35;;;;;;;16.92;8.35;;;;;;;;;;5077523;28;20136;-75
2023/02/20 10:15:01;;;;;;;13.30;7.60;;;;;;;;;;5081499;28;20024;-75
2023/02/20 10:17:37;;;;;;;13.25;6.68;;;;;;;;;;5087772;28;20056;-75
2023/02/20 10:20:06;;;;;;;15.23;7.18;;;;;;;;;;5092273;28;20024;-74
2023/02/20 10:22:33;;;;;;;16.40;7.72;;;;;;;;;;5085085;28;20134;-75
2023/02/20 10:25:08;;;;;;;16.50;8.35;;;;;;;;;;5090948;28;20024;-75
2023/02/20 10:27:34;;;;;;;18.65;8.90;;;;;;;;;;5080721;28;20032;-75
2023/02/20 10:30:04;;;;;;;22.58;9.00;;;;;;;;;;5087061;28;20027;-75
2023/02/20 10:32:35;;;;;;;19.23;8.40;;;;;;;;;;5091182;28;20032;-75
2023/02/20 10:35:04;;;;;;;16.90;8.67;;;;;;;;;;5089122;28;20472;-75
2023/02/20 10:37:36;;;;;;;16.25;8.43;;;;;;;;;;5097625;28;20033;-75
2023/02/20 10:40:08;;;;;;;23.73;9.05;;;;;;;;;;5087346;28;20107;-75
2023/02/20 10:42:37;;;;;;;20.08;9.80;;;;;;;;;;5092005;28;20029;-75
2023/02/20 10:45:07;;;;;;;22.70;7.93;;;;;;;;;;5096398;28;20075;-75
2023/02/20 10:47:41;;;;;;;20.85;8.70;;;;;;;;;;5088847;28;20028;-75
2023/02/20 10:50:07;;;;;;;18.05;8.77;;;;;;;;;;5087418;28;20039;-75
2023/02/20 10:52:54;;;;;;;18.52;8.23;;;;;;;;;;5089468;28;20024;-75
2023/02/20 10:55:23;;;;;;;16.08;8.10;;;;;;;;;;5090729;28;20032;-75
2023/02/20 10:58:04;;;;;;;17.55;8.23;;;;;;;;;;5086516;28;20028;-75
2023/02/20 11:00:35;;;;;;;19.00;7.30;;;;;;;;;;5088183;28;20062;-75
2023/02/20 11:03:05;;;;;;;20.90;8.02;;;;;;;;;;5084602;28;20120;-75
2023/02/20 11:05:33;;;;;;;13.90;7.32;;;;;;;;;;5088334;28;20681;-75
2023/02/20 11:07:59;;;;;;;14.85;6.40;;;;;;;;;;5080094;28;20103;-75
2023/02/20 11:10:25;;;;;;;15.95;6.55;;;;;;;;;;5074105;28;20575;-75
2023/02/20 11:12:52;;;;;;;11.63;6.15;;;;;;;;;;5092189;28;20110;-75
2023/02/20 11:15:21;;;;;;;14.25;7.05;;;;;;;;;;5090717;28;20448;-75
2023/02/20 11:17:49;;;;;;;13.65;6.07;;;;;;;;;;5090768;28;20036;-75
2023/02/20 11:20:45;;;;;;;9.60;5.53;;;;;;;;;;5089762;28;20078;-75
2023/02/20 11:23:31;;;;;;;12.80;6.07;;;;;;;;;;5085867;28;20027;-75
2023/02/20 11:26:12;;;;;;;11.68;5.47;;;;;;;;;;5087388;28;20032;-75
2023/02/20 11:28:38;;;;;;;11.43;6.10;;;;;;;;;;5086881;28;20028;-75
2023/02/20 11:31:05;;;;;;;11.77;6.85;;;;;;;;;;5087965;28;20024;-74
2023/02/20 11:33:38;;;;;;;8.45;4.57;;;;;;;;;;5087526;28;20103;-74
2023/02/20 11:36:10;;;;;;;13.02;5.82;;;;;;;;;;5089966;28;20028;-73
2023/02/20 11:38:36;;;;;;;11.70;5.78;;;;;;;;;;5086871;28;20040;-74
2023/02/20 11:41:07;;;;;;;11.70;4.93;;;;;;;;;;5086464;28;20040;-74
2023/02/20 11:43:38;;;;;;;14.10;5.32;;;;;;;;;;5093176;28;20996;-74
2023/02/20 11:46:06;;;;;;;10.50;5.20;;;;;;;;;;5084817;28;20041;-73
2023/02/20 11:48:32;;;;;;;11.00;5.30;;;;;;;;;;5081429;28;20032;-74
2023/02/20 11:50:58;;;;;;;11.30;5.75;;;;;;;;;;5094803;28;20103;-74
2023/02/20 11:53:28;;;;;;;9.43;4.85;;;;;;;;;;5087673;28;20103;-74
2023/02/20 11:56:13;;;;;;;9.95;4.95;;;;;;;;;;5088246;28;20059;-74
2023/02/20 11:58:40;;;;;;;9.25;4.80;;;;;;;;;;5081802;28;20036;-76
2023/02/20 12:01:06;;;;;;;8.68;4.93;;;;;;;;;;5088743;28;20043;-75
2023/02/20 12:03:34;;;;;;;8.43;4.78;;;;;;;;;;5085782;28;20652;-75
2023/02/20 12:06:01;;;;;;;7.40;4.65;;;;;;;;;;5088111;28;20646;-76
2023/02/20 12:08:39;;;;;;;8.77;4.10;;;;;;;;;;5089621;28;20028;-76
2023/02/20 12:11:19;;;;;;;9.02;4.53;;;;;;;;;;5087992;28;20403;-75
2023/02/20 12:13:50;;;;;;;11.35;4.70;;;;;;;;;;5074829;28;20032;-75
2023/02/20 12:16:22;;;;;;;8.27;5.05;;;;;;;;;;5085722;28;20097;-75
2023/02/20 12:18:48;;;;;;;;;;;;;;;;;;5085143;28;20044;-75
2023/02/20 12:21:22;;;;;;;10.70;5.00;;;;;;;;;;5088675;28;19954;-75
2023/02/20 12:23:52;;;;;;;10.45;4.70;;;;;;;;;;5084810;28;20036;-75
2023/02/20 12:26:27;;;;;;;7.40;3.72;;;;;;;;;;5082991;28;20028;-75
2023/02/20 12:29:04;;;;;;;11.52;4.53;;;;;;;;;;5083862;28;20032;-76
2023/02/20 12:31:50;;;;;;;8.68;3.97;;;;;;;;;;5087585;28;20107;-75
2023/02/20 12:34:16;;;;;;;8.38;4.82;;;;;;;;;;5086232;28;20031;-76
2023/02/20 12:36:52;;;;;;;7.32;4.43;;;;;;;;;;5087745;28;20031;-75
2023/02/20 12:39:37;;;;;;;8.90;3.85;;;;;;;;;;5088610;28;20054;-75
2023/02/20 12:42:04;;;;;;;8.07;4.68;;;;;;;;;;5089516;28;20116;-75
2023/02/20 12:44:49;;;;;;;7.80;4.43;;;;;;;;;;5091196;28;20088;-75
2023/02/20 12:47:14;;;;;;;7.30;4.03;;;;;;;;;;5086271;28;20046;-75
2023/02/20 12:49:59;;;;;;;10.77;4.10;;;;;;;;;;5087822;28;20028;-75
2023/02/20 12:52:37;;;;;;;6.63;4.15;;;;;;;;;;5087230;28;20079;-75
2023/02/20 12:55:06;;;;;;;7.65;4.30;;;;;;;;;;5080740;28;20020;-75
2023/02/20 12:57:45;;;;;;;7.70;4.22;;;;;;;;;;5085569;28;20099;-75
2023/02/20 13:00:14;;;;;;;6.50;4.50;;;;;;;;;;5086216;28;20024;-75
2023/02/20 13:02:46;;;;;;;9.82;4.13;;;;;;;;;;5085806;28;20460;-75
2023/02/20 13:05:16;;;;;;;7.22;3.85;;;;;;;;;;5085706;28;20028;-74
2023/02/20 13:07:52;;;;;;;13.70;4.18;;;;;;;;;;5082181;28;20041;-75
2023/02/20 13:10:18;;;;;;;7.43;4.13;;;;;;;;;;5081454;28;20393;-74
2023/02/20 13:12:44;;;;;;;7.85;4.22;;;;;;;;;;5075826;28;20037;-75
2023/02/20 13:15:29;;;;;;;6.90;4.13;;;;;;;;;;5086675;28;20406;-75
2023/02/20 13:18:16;;;;;;;8.50;4.45;;;;;;;;;;5080420;28;20064;-75
2023/02/20 13:21:02;;;;;;;10.05;4.57;;;;;;;;;;5078802;28;20073;-75
2023/02/20 13:23:33;;;;;;;9.95;4.78;;;;;;;;;;5082210;28;20062;-74
2023/02/20 13:25:59;;;;;;;8.90;3.88;;;;;;;;;;5087422;28;20032;-75
2023/02/20 13:28:36;;;;;;;12.98;4.97;;;;;;;;;;5088205;28;20028;-76
2023/02/20 13:31:14;;;;;;;8.02;4.90;;;;;;;;;;5085660;28;20028;-76
2023/02/20 13:33:42;;;;;;;8.85;4.55;;;;;;;;;;5088764;28;20111;-76
2023/02/20 13:36:28;;;;;;;9.75;4.07;;;;;;;;;;5087234;28;20801;-75
2023/02/20 13:39:12;;;;;;;9.93;4.68;;;;;;;;;;5084610;28;20051;-75
2023/02/20 13:41:54;;;;;;;7.93;4.40;;;;;;;;;;5085793;28;20488;-75
2023/02/20 13:44:29;;;;;;;8.45;4.88;;;;;;;;;;5086163;28;20508;-75
2023/02/20 13:46:56;;;;;;;9.70;4.50;;;;;;;;;;5084480;28;20024;-75
2023/02/20 13:52:30;;;;;;;7.72;4.68;;;;;;;;;;5072504;28;20077;-75
2023/02/20 13:54:58;;;;;;;8.23;4.97;;;;;;;;;;5080345;28;20032;-75
2023/02/20 13:57:28;;;;;;;9.55;4.72;;;;;;;;;;5087595;28;20040;-75
2023/02/20 13:59:55;;;;;;;10.18;4.60;;;;;;;;;;5068571;28;20118;-75
2023/02/20 14:02:28;;;;;;;7.38;3.92;;;;;;;;;;5089372;28;20449;-74
2023/02/20 14:05:01;;;;;;;10.73;4.53;;;;;;;;;;5084779;28;20040;-75
2023/02/20 14:07:32;;;;;;;9.55;5.63;;;;;;;;;;5084111;28;20035;-76
2023/02/20 14:10:06;;;;;;;9.68;5.10;;;;;;;;;;5082513;28;20053;-75
2023/02/20 14:12:34;;;;;;;9.43;4.38;;;;;;;;;;5086791;28;20054;-76
2023/02/20 14:15:02;;;;;;;7.10;3.92;;;;;;;;;;5085497;28;20416;-75
2023/02/20 14:17:28;;;;;;;10.27;4.47;;;;;;;;;;5088006;28;20030;-74
2023/02/20 14:19:59;;;;;;;9.70;4.18;;;;;;;;;;5079978;28;20032;-75
2023/02/20 14:22:30;;;;;;;7.05;4.30;;;;;;;;;;5081026;28;20032;-76
2023/02/20 14:25:11;;;;;;;9.40;4.63;;;;;;;;;;5085101;28;20481;-76
2023/02/20 14:27:38;;;;;;;8.63;3.80;;;;;;;;;;5085892;28;20292;-76
2023/02/20 14:30:11;;;;;;;8.07;4.63;;;;;;;;;;5092060;28;20063;-76
2023/02/20 14:32:37;;;;;;;7.85;4.20;;;;;;;;;;5087907;28;20035;-75
2023/02/20 14:35:09;;;;;;;7.05;4.18;;;;;;;;;;5081228;28;20119;-75
2023/02/20 14:37:54;;;;;;;7.50;3.67;;;;;;;;;;5086721;28;20414;-74
2023/02/20 14:40:28;;;;;;;8.02;3.10;;;;;;;;;;5089854;28;20084;-76
2023/02/20 14:42:59;;;;;;;7.78;3.10;;;;;;;;;;5085290;28;20036;-75
2023/02/20 14:45:26;;;;;;;6.17;2.67;;;;;;;;;;5086154;28;20040;-75
2023/02/20 14:47:53;;;;;;;7.10;2.47;;;;;;;;;;5084250;28;20101;-75
2023/02/20 14:50:21;;;;;;;8.52;2.70;;;;;;;;;;5080862;28;20020;-75
2023/02/20 14:52:47;;;;;;;12.60;3.35;;;;;;;;;;5094264;28;20833;-75
2023/02/20 14:55:18;;;;;;;10.52;3.13;;;;;;;;;;5084868;28;20134;-75